createdAt,value
2019-05-07T00:02:00.000Z,278.96
2019-05-07T00:03:23.000Z,279.02
2019-05-07T00:05:26.000Z,279.02
2019-05-07T00:06:49.000Z,278.96
2019-05-07T00:08:52.000Z,278.96
2019-05-07T00:10:15.000Z,278.96
2019-05-07T00:12:19.000Z,278.96
2019-05-07T00:13:43.000Z,279.02
2019-05-07T00:15:50.000Z,279.02
2019-05-07T00:17:17.000Z,278.96
2019-05-07T00:19:18.000Z,278.9
2019-05-07T00:20:40.000Z,278.84
2019-05-07T00:22:42.000Z,278.84
2019-05-07T00:24:08.000Z,278.84
2019-05-07T00:26:13.000Z,278.77
2019-05-07T00:27:36.000Z,278.9
2019-05-07T00:29:38.000Z,278.9
2019-05-07T00:31:05.000Z,278.9
2019-05-07T00:33:12.000Z,278.77
2019-05-07T00:34:42.000Z,278.77
2019-05-07T00:36:47.000Z,278.84
2019-05-07T00:38:18.000Z,278.9
2019-05-07T00:40:21.000Z,278.84
2019-05-07T00:41:46.000Z,278.84
2019-05-07T00:43:47.000Z,278.77
2019-05-07T00:45:18.000Z,278.84
2019-05-07T00:47:31.000Z,278.71
2019-05-07T00:48:56.000Z,278.71
2019-05-07T00:51:04.000Z,278.65
2019-05-07T00:52:33.000Z,278.65
2019-05-07T00:54:41.000Z,278.59
2019-05-07T00:56:06.000Z,278.59
2019-05-07T00:58:10.000Z,278.71
2019-05-07T00:59:34.000Z,278.65
2019-05-07T01:01:42.000Z,278.65
2019-05-07T01:03:08.000Z,278.65
2019-05-07T01:05:20.000Z,278.52
2019-05-07T01:06:53.000Z,278.59
2019-05-07T01:08:57.000Z,278.59
2019-05-07T01:10:28.000Z,278.59
2019-05-07T01:12:34.000Z,278.52
2019-05-07T01:13:58.000Z,278.52
2019-05-07T01:16:06.000Z,278.52
2019-05-07T01:17:31.000Z,278.52
2019-05-07T01:19:41.000Z,278.46
2019-05-07T01:21:11.000Z,278.52
2019-05-07T01:23:15.000Z,278.46
2019-05-07T01:24:43.000Z,278.52
2019-05-07T01:26:49.000Z,278.52
2019-05-07T01:28:20.000Z,278.52
2019-05-07T01:30:26.000Z,278.4
2019-05-07T01:31:49.000Z,278.4
2019-05-07T01:33:56.000Z,278.46
2019-05-07T01:35:24.000Z,278.46
2019-05-07T01:37:30.000Z,278.4
2019-05-07T01:38:54.000Z,278.34
2019-05-07T01:41:05.000Z,278.27
2019-05-07T01:42:36.000Z,278.27
2019-05-07T01:44:40.000Z,278.27
2019-05-07T01:46:08.000Z,278.27
2019-05-07T01:48:17.000Z,278.27
2019-05-07T01:49:46.000Z,278.27
2019-05-07T01:57:54.000Z,278.21
2019-05-07T01:59:16.000Z,278.21
2019-05-07T02:01:17.000Z,278.21
2019-05-07T02:02:42.000Z,278.21
2019-05-07T02:04:42.000Z,278.27
2019-05-07T02:06:04.000Z,278.21
2019-05-07T02:08:05.000Z,278.09
2019-05-07T02:09:28.000Z,278.09
2019-05-07T02:11:29.000Z,278.15
2019-05-07T02:12:52.000Z,278.15
2019-05-07T02:14:53.000Z,278.15
2019-05-07T02:16:15.000Z,278.09
2019-05-07T02:18:16.000Z,278.15
2019-05-07T02:19:39.000Z,278.15
2019-05-07T02:21:41.000Z,278.15
2019-05-07T02:23:03.000Z,278.15
2019-05-07T02:25:04.000Z,278.15
2019-05-07T02:26:26.000Z,278.09
2019-05-07T02:28:28.000Z,278.09
2019-05-07T02:29:50.000Z,278.02
2019-05-07T02:31:51.000Z,278.02
2019-05-07T02:33:14.000Z,278.02
2019-05-07T02:35:15.000Z,278.02
2019-05-07T02:36:37.000Z,278.09
2019-05-07T02:38:39.000Z,278.02
2019-05-07T02:40:04.000Z,278.02
2019-05-07T02:42:06.000Z,277.9
2019-05-07T02:43:28.000Z,277.9
2019-05-07T02:45:32.000Z,277.84
2019-05-07T02:46:54.000Z,277.84
2019-05-07T02:48:57.000Z,277.77
2019-05-07T02:50:20.000Z,277.77
2019-05-07T02:52:22.000Z,277.71
2019-05-07T02:53:44.000Z,277.77
2019-05-07T02:55:46.000Z,277.77
2019-05-07T02:57:09.000Z,277.77
2019-05-07T02:59:16.000Z,277.77
2019-05-07T03:00:39.000Z,277.71
2019-05-07T03:02:42.000Z,277.71
2019-05-07T03:04:04.000Z,277.71
2019-05-07T03:06:08.000Z,277.65
2019-05-07T03:07:33.000Z,277.65
2019-05-07T03:09:37.000Z,277.71
2019-05-07T03:10:59.000Z,277.71
2019-05-07T03:13:04.000Z,277.71
2019-05-07T03:14:27.000Z,277.71
2019-05-07T03:16:28.000Z,277.77
2019-05-07T03:18:04.000Z,277.77
2019-05-07T03:21:41.000Z,277.84
2019-05-07T03:22:15.000Z,277.84
2019-05-07T03:23:39.000Z,277.84
2019-05-07T03:25:43.000Z,277.9
2019-05-07T03:27:07.000Z,277.9
2019-05-07T03:29:10.000Z,277.96
2019-05-07T03:30:33.000Z,277.96
2019-05-07T03:32:38.000Z,277.9
2019-05-07T03:34:10.000Z,277.9
2019-05-07T03:36:18.000Z,277.84
2019-05-07T03:37:42.000Z,277.84
2019-05-07T03:39:43.000Z,277.84
2019-05-07T03:41:07.000Z,277.84
2019-05-07T03:43:16.000Z,277.77
2019-05-07T03:44:39.000Z,277.77
2019-05-07T03:46:45.000Z,277.77
2019-05-07T03:48:26.000Z,277.71
2019-05-07T03:50:28.000Z,277.77
2019-05-07T03:51:51.000Z,277.77
2019-05-07T03:53:53.000Z,277.77
2019-05-07T03:55:16.000Z,277.77
2019-05-07T03:57:19.000Z,277.77
2019-05-07T03:58:45.000Z,277.77
2019-05-07T04:00:51.000Z,277.77
2019-05-07T04:02:17.000Z,277.77
2019-05-07T04:04:22.000Z,277.71
2019-05-07T04:05:47.000Z,277.71
2019-05-07T04:07:52.000Z,277.71
2019-05-07T04:09:16.000Z,277.77
2019-05-07T04:11:20.000Z,277.77
2019-05-07T04:12:45.000Z,277.71
2019-05-07T04:14:48.000Z,277.71
2019-05-07T04:16:14.000Z,277.77
2019-05-07T04:18:18.000Z,277.77
2019-05-07T04:19:43.000Z,277.77
2019-05-07T04:21:54.000Z,277.77
2019-05-07T04:23:18.000Z,277.84
2019-05-07T04:25:29.000Z,277.84
2019-05-07T04:26:59.000Z,277.84
2019-05-07T04:29:03.000Z,277.84
2019-05-07T04:30:27.000Z,277.84
2019-05-07T04:32:32.000Z,277.84
2019-05-07T04:33:56.000Z,277.84
2019-05-07T04:36:09.000Z,277.84
2019-05-07T04:37:35.000Z,277.84
2019-05-07T04:39:39.000Z,277.84
2019-05-07T04:41:03.000Z,277.9
2019-05-07T04:43:04.000Z,277.96
2019-05-07T04:44:27.000Z,277.96
2019-05-07T04:46:42.000Z,278.02
2019-05-07T04:48:16.000Z,278.02
2019-05-07T04:50:19.000Z,278.09
2019-05-07T04:52:06.000Z,278.15
2019-05-07T04:54:15.000Z,278.15
2019-05-07T04:55:40.000Z,278.15
2019-05-07T04:57:50.000Z,278.15
2019-05-07T04:59:22.000Z,278.21
2019-05-07T05:01:29.000Z,278.15
2019-05-07T05:02:59.000Z,278.21
2019-05-07T05:05:08.000Z,278.27
2019-05-07T05:06:39.000Z,278.27
2019-05-07T05:08:48.000Z,278.27
2019-05-07T05:10:18.000Z,278.27
2019-05-07T05:12:27.000Z,278.21
2019-05-07T05:13:55.000Z,278.27
2019-05-07T05:16:02.000Z,278.34
2019-05-07T05:17:33.000Z,278.4
2019-05-07T05:19:55.000Z,278.46
2019-05-07T05:21:28.000Z,278.52
2019-05-07T05:23:33.000Z,278.59
2019-05-07T05:25:00.000Z,278.65
2019-05-07T05:27:04.000Z,278.77
2019-05-07T05:28:31.000Z,278.77
2019-05-07T05:30:37.000Z,278.84
2019-05-07T05:32:04.000Z,278.84
2019-05-07T05:34:10.000Z,278.84
2019-05-07T05:35:44.000Z,278.84
2019-05-07T05:37:53.000Z,278.9
2019-05-07T05:39:22.000Z,278.96
2019-05-07T05:41:31.000Z,278.96
2019-05-07T05:43:03.000Z,279.09
2019-05-07T05:45:12.000Z,279.09
2019-05-07T05:46:41.000Z,279.15
2019-05-07T05:48:49.000Z,279.27
2019-05-07T05:50:20.000Z,279.27
2019-05-07T05:52:30.000Z,279.4
2019-05-07T05:54:00.000Z,279.46
2019-05-07T05:56:10.000Z,279.52
2019-05-07T05:57:41.000Z,279.59
2019-05-07T06:01:23.000Z,279.59
2019-05-07T06:07:26.000Z,279.71
2019-05-07T06:08:48.000Z,279.77
2019-05-07T06:10:51.000Z,279.84
2019-05-07T06:12:13.000Z,279.96
2019-05-07T06:14:14.000Z,280.02
2019-05-07T06:15:36.000Z,280.02
2019-05-07T06:17:37.000Z,280.15
2019-05-07T06:19:02.000Z,280.15
2019-05-07T06:21:03.000Z,280.21
2019-05-07T06:22:25.000Z,280.21
2019-05-07T06:24:26.000Z,280.21
2019-05-07T06:25:48.000Z,280.15
2019-05-07T06:27:52.000Z,280.27
2019-05-07T06:29:14.000Z,280.27
2019-05-07T06:31:15.000Z,280.34
2019-05-07T06:32:37.000Z,280.4
2019-05-07T06:34:39.000Z,280.52
2019-05-07T06:36:05.000Z,280.59
2019-05-07T06:38:07.000Z,280.65
2019-05-07T06:39:29.000Z,280.65
2019-05-07T06:41:31.000Z,280.71
2019-05-07T06:42:54.000Z,280.65
2019-05-07T06:44:58.000Z,280.77
2019-05-07T06:46:27.000Z,280.84
2019-05-07T06:48:32.000Z,280.9
2019-05-07T06:50:04.000Z,280.84
2019-05-07T06:52:09.000Z,280.9
2019-05-07T06:53:33.000Z,280.96
2019-05-07T07:01:55.000Z,281.15
2019-05-07T07:03:17.000Z,281.21
2019-05-07T07:05:18.000Z,281.27
2019-05-07T07:06:45.000Z,281.34
2019-05-07T07:08:46.000Z,281.09
2019-05-07T07:10:08.000Z,281.21
2019-05-07T07:12:11.000Z,281.27
2019-05-07T07:13:33.000Z,281.27
2019-05-07T07:15:35.000Z,281.4
2019-05-07T07:16:58.000Z,281.4
2019-05-07T07:19:02.000Z,281.4
2019-05-07T07:20:24.000Z,281.52
2019-05-07T07:22:24.000Z,281.59
2019-05-07T07:23:46.000Z,281.46
2019-05-07T07:25:47.000Z,281.52
2019-05-07T07:27:12.000Z,281.46
2019-05-07T07:29:14.000Z,281.34
2019-05-07T07:30:36.000Z,281.52
2019-05-07T07:32:38.000Z,281.59
2019-05-07T07:34:02.000Z,281.59
2019-05-07T07:36:03.000Z,281.65
2019-05-07T07:37:27.000Z,281.77
2019-05-07T07:39:28.000Z,281.9
2019-05-07T07:40:52.000Z,282.09
2019-05-07T07:42:54.000Z,282.09
2019-05-07T07:44:16.000Z,282.09
2019-05-07T07:46:18.000Z,281.96
2019-05-07T07:47:43.000Z,281.9
2019-05-07T07:49:46.000Z,282.02
2019-05-07T07:51:08.000Z,282.27
2019-05-07T07:53:10.000Z,282.4
2019-05-07T07:54:33.000Z,282.4
2019-05-07T07:56:34.000Z,282.34
2019-05-07T07:58:14.000Z,282.46
2019-05-07T08:00:16.000Z,282.21
2019-05-07T08:01:40.000Z,282.27
2019-05-07T08:03:42.000Z,282.15
2019-05-07T08:05:04.000Z,282.15
2019-05-07T08:07:05.000Z,282.46
2019-05-07T08:08:28.000Z,282.34
2019-05-07T08:10:31.000Z,282.65
2019-05-07T08:11:56.000Z,282.71
2019-05-07T08:13:57.000Z,282.65
2019-05-07T08:15:22.000Z,282.4
2019-05-07T08:17:23.000Z,282.52
2019-05-07T08:18:47.000Z,282.46
2019-05-07T08:20:50.000Z,282.4
2019-05-07T08:22:12.000Z,282.77
2019-05-07T08:24:13.000Z,282.65
2019-05-07T08:25:36.000Z,282.77
2019-05-07T08:27:38.000Z,283.21
2019-05-07T08:29:01.000Z,282.96
2019-05-07T08:31:03.000Z,283.34
2019-05-07T08:32:27.000Z,283.27
2019-05-07T08:34:28.000Z,283.52
2019-05-07T08:35:54.000Z,283.4
2019-05-07T08:37:56.000Z,283.4
2019-05-07T08:39:19.000Z,283.59
2019-05-07T08:41:25.000Z,283.34
2019-05-07T08:42:49.000Z,283.65
2019-05-07T08:44:53.000Z,283.84
2019-05-07T08:46:18.000Z,283.71
2019-05-07T08:48:25.000Z,282.96
2019-05-07T08:49:49.000Z,282.9
2019-05-07T08:51:52.000Z,282.96
2019-05-07T08:53:17.000Z,282.96
2019-05-07T08:55:21.000Z,282.59
2019-05-07T08:56:43.000Z,282.71
2019-05-07T08:58:45.000Z,282.46
2019-05-07T09:00:09.000Z,282.4
2019-05-07T09:02:11.000Z,282.59
2019-05-07T09:03:38.000Z,282.84
2019-05-07T09:05:43.000Z,282.9
2019-05-07T09:07:09.000Z,283.09
2019-05-07T09:09:14.000Z,283.21
2019-05-07T09:10:37.000Z,283.15
2019-05-07T09:12:41.000Z,282.9
2019-05-07T09:14:09.000Z,282.84
2019-05-07T09:16:12.000Z,282.9
2019-05-07T09:17:40.000Z,282.77
2019-05-07T09:19:47.000Z,283.02
2019-05-07T09:21:15.000Z,282.9
2019-05-07T09:23:18.000Z,282.96
2019-05-07T09:24:45.000Z,282.96
2019-05-07T09:26:52.000Z,282.96
2019-05-07T09:28:17.000Z,283.21
2019-05-07T09:30:27.000Z,283.46
2019-05-07T09:31:53.000Z,283.46
2019-05-07T09:33:56.000Z,283.77
2019-05-07T09:35:20.000Z,283.65
2019-05-07T09:37:22.000Z,283.59
2019-05-07T09:38:45.000Z,283.34
2019-05-07T09:41:07.000Z,283.02
2019-05-07T09:42:38.000Z,283.27
2019-05-07T09:44:41.000Z,283.46
2019-05-07T09:46:07.000Z,283.59
2019-05-07T09:48:11.000Z,283.65
2019-05-07T09:49:39.000Z,283.84
2019-05-07T09:51:43.000Z,283.84
2019-05-07T09:53:10.000Z,283.84
2019-05-07T09:55:16.000Z,283.71
2019-05-07T09:56:42.000Z,283.59
2019-05-07T09:58:45.000Z,283.59
2019-05-07T10:00:15.000Z,283.65
2019-05-07T10:02:25.000Z,283.65
2019-05-07T10:03:52.000Z,283.71
2019-05-07T10:05:57.000Z,283.59
2019-05-07T10:07:22.000Z,283.65
2019-05-07T10:09:28.000Z,283.59
2019-05-07T10:10:57.000Z,283.59
2019-05-07T10:13:02.000Z,283.65
2019-05-07T10:14:29.000Z,283.65
2019-05-07T10:16:40.000Z,283.65
2019-05-07T10:18:05.000Z,283.65
2019-05-07T10:20:21.000Z,283.71
2019-05-07T10:21:46.000Z,283.21
2019-05-07T10:23:53.000Z,283.27
2019-05-07T10:25:24.000Z,283.21
2019-05-07T10:27:31.000Z,283.4
2019-05-07T10:29:01.000Z,283.4
2019-05-07T10:31:04.000Z,283.21
2019-05-07T10:32:35.000Z,282.77
2019-05-07T10:34:43.000Z,282.65
2019-05-07T10:36:13.000Z,282.65
2019-05-07T10:38:22.000Z,282.77
2019-05-07T10:39:52.000Z,283.09
2019-05-07T10:41:59.000Z,283.27
2019-05-07T10:43:26.000Z,283.15
2019-05-07T10:45:33.000Z,283.15
2019-05-07T10:47:00.000Z,283.15
2019-05-07T10:49:12.000Z,283.4
2019-05-07T10:50:38.000Z,283.59
2019-05-07T10:52:52.000Z,283.52
2019-05-07T10:54:21.000Z,283.4
2019-05-07T10:56:34.000Z,283.27
2019-05-07T10:58:04.000Z,283.21
2019-05-07T11:00:15.000Z,283.34
2019-05-07T11:01:48.000Z,283.4
2019-05-07T11:03:57.000Z,283.46
2019-05-07T11:05:31.000Z,283.27
2019-05-07T11:07:37.000Z,283.21
2019-05-07T11:09:07.000Z,283.27
2019-05-07T11:11:14.000Z,283.27
2019-05-07T11:12:42.000Z,283.27
2019-05-07T11:14:53.000Z,283.46
2019-05-07T11:16:23.000Z,283.77
2019-05-07T11:18:31.000Z,283.9
2019-05-07T11:20:02.000Z,283.9
2019-05-07T11:22:09.000Z,283.59
2019-05-07T11:23:38.000Z,283.65
2019-05-07T11:25:46.000Z,283.84
2019-05-07T11:27:15.000Z,283.9
2019-05-07T11:29:27.000Z,284.09
2019-05-07T11:30:56.000Z,284.34
2019-05-07T11:33:06.000Z,284.34
2019-05-07T11:34:37.000Z,284.34
2019-05-07T11:36:45.000Z,284.59
2019-05-07T11:38:15.000Z,284.84
2019-05-07T11:40:30.000Z,284.4
2019-05-07T11:42:03.000Z,284.27
2019-05-07T11:44:10.000Z,284.09
2019-05-07T11:45:44.000Z,284.34
2019-05-07T11:47:53.000Z,284.21
2019-05-07T11:49:22.000Z,284.59
2019-05-07T11:56:45.000Z,284.15
2019-05-07T11:58:07.000Z,284.02
2019-05-07T12:05:46.000Z,284.4
2019-05-07T12:07:09.000Z,284.4
2019-05-07T12:09:10.000Z,284.4
2019-05-07T12:10:33.000Z,284.15
2019-05-07T12:12:34.000Z,284.15
2019-05-07T12:13:56.000Z,284.02
2019-05-07T12:15:57.000Z,283.9
2019-05-07T12:17:19.000Z,283.96
2019-05-07T12:19:21.000Z,284.15
2019-05-07T12:20:43.000Z,284.21
2019-05-07T12:22:44.000Z,284.21
2019-05-07T12:24:06.000Z,284.21
2019-05-07T12:26:07.000Z,284.02
2019-05-07T12:27:29.000Z,283.9
2019-05-07T12:29:31.000Z,283.84
2019-05-07T12:30:54.000Z,283.84
2019-05-07T12:32:56.000Z,283.77
2019-05-07T12:34:18.000Z,283.84
2019-05-07T12:36:19.000Z,283.9
2019-05-07T12:37:42.000Z,284.02
2019-05-07T12:39:48.000Z,284.09
2019-05-07T12:41:10.000Z,284.15
2019-05-07T12:43:12.000Z,284.09
2019-05-07T12:44:34.000Z,284.02
2019-05-07T12:46:35.000Z,284.09
2019-05-07T12:47:58.000Z,283.96
2019-05-07T12:50:01.000Z,284.02
2019-05-07T12:51:24.000Z,284.02
2019-05-07T12:53:36.000Z,284.21
2019-05-07T12:54:59.000Z,284.34
2019-05-07T12:57:02.000Z,284.4
2019-05-07T12:58:24.000Z,284.46
2019-05-07T13:00:25.000Z,284.52
2019-05-07T13:01:47.000Z,284.46
2019-05-07T13:03:48.000Z,284.21
2019-05-07T13:05:13.000Z,284.34
2019-05-07T13:07:14.000Z,284.46
2019-05-07T13:08:36.000Z,284.59
2019-05-07T13:10:37.000Z,284.65
2019-05-07T13:12:02.000Z,284.46
2019-05-07T13:14:03.000Z,284.9
2019-05-07T13:15:25.000Z,285.02
2019-05-07T13:17:28.000Z,284.9
2019-05-07T13:18:51.000Z,285.09
2019-05-07T13:20:52.000Z,284.9
2019-05-07T13:22:14.000Z,284.84
2019-05-07T13:24:17.000Z,284.84
2019-05-07T13:25:39.000Z,285.21
2019-05-07T13:27:42.000Z,285.52
2019-05-07T13:29:04.000Z,285.34
2019-05-07T13:31:05.000Z,285.65
2019-05-07T13:32:28.000Z,285.27
2019-05-07T13:34:30.000Z,285.4
2019-05-07T13:35:57.000Z,285.71
2019-05-07T13:38:01.000Z,285.84
2019-05-07T13:39:24.000Z,286.15
2019-05-07T13:41:30.000Z,285.9
2019-05-07T13:42:52.000Z,286.15
2019-05-07T13:44:56.000Z,286.09
2019-05-07T13:46:20.000Z,285.84
2019-05-07T13:48:23.000Z,285.65
2019-05-07T13:49:46.000Z,285.65
2019-05-07T13:51:48.000Z,285.46
2019-05-07T13:53:24.000Z,285.59
2019-05-07T13:55:27.000Z,285.4
2019-05-07T13:56:50.000Z,285.27
2019-05-07T13:58:53.000Z,285.21
2019-05-07T14:00:15.000Z,285.15
2019-05-07T14:02:18.000Z,285.34
2019-05-07T14:03:45.000Z,285.65
2019-05-07T14:05:51.000Z,285.65
2019-05-07T14:07:19.000Z,285.46
2019-05-07T14:09:23.000Z,285.46
2019-05-07T14:10:47.000Z,285.27
2019-05-07T14:12:48.000Z,285.09
2019-05-07T14:14:13.000Z,285.46
2019-05-07T14:16:18.000Z,285.4
2019-05-07T14:17:47.000Z,285.27
2019-05-07T14:19:52.000Z,285.27
2019-05-07T14:21:15.000Z,285.09
2019-05-07T14:23:20.000Z,284.9
2019-05-07T14:24:48.000Z,285.15
2019-05-07T14:26:51.000Z,284.96
2019-05-07T14:28:13.000Z,285.02
2019-05-07T14:30:14.000Z,285.15
2019-05-07T14:31:36.000Z,284.96
2019-05-07T14:33:41.000Z,284.71
2019-05-07T14:35:08.000Z,284.59
2019-05-07T14:37:14.000Z,284.71
2019-05-07T14:38:41.000Z,284.71
2019-05-07T14:40:42.000Z,284.59
2019-05-07T14:42:09.000Z,284.65
2019-05-07T14:44:16.000Z,284.71
2019-05-07T14:45:44.000Z,284.65
2019-05-07T14:47:52.000Z,284.52
2019-05-07T14:49:15.000Z,284.46
2019-05-07T14:51:18.000Z,284.52
2019-05-07T14:52:42.000Z,284.52
2019-05-07T14:54:47.000Z,284.52
2019-05-07T14:56:14.000Z,284.59
2019-05-07T14:58:20.000Z,284.59
2019-05-07T14:59:45.000Z,284.52
2019-05-07T15:01:52.000Z,284.46
2019-05-07T15:03:16.000Z,284.52
2019-05-07T15:05:24.000Z,284.34
2019-05-07T15:06:51.000Z,284.52
2019-05-07T15:08:58.000Z,284.52
2019-05-07T15:10:23.000Z,284.59
2019-05-07T15:12:31.000Z,284.59
2019-05-07T15:13:55.000Z,284.71
2019-05-07T15:15:57.000Z,284.71
2019-05-07T15:17:28.000Z,284.84
2019-05-07T15:19:33.000Z,284.96
2019-05-07T15:21:01.000Z,285.15
2019-05-07T15:23:10.000Z,284.9
2019-05-07T15:24:43.000Z,284.84
2019-05-07T15:26:46.000Z,284.9
2019-05-07T15:28:12.000Z,285.15
2019-05-07T15:30:20.000Z,285.15
2019-05-07T15:31:48.000Z,285.21
2019-05-07T15:33:58.000Z,285.02
2019-05-07T15:35:28.000Z,285.21
2019-05-07T15:37:40.000Z,285.27
2019-05-07T15:39:08.000Z,285.27
2019-05-07T15:41:16.000Z,285.4
2019-05-07T15:42:43.000Z,285.34
2019-05-07T15:44:49.000Z,285.09
2019-05-07T15:46:20.000Z,285.02
2019-05-07T15:48:29.000Z,284.9
2019-05-07T15:49:59.000Z,284.77
2019-05-07T15:52:06.000Z,284.9
2019-05-07T15:53:38.000Z,284.96
2019-05-07T15:55:52.000Z,284.9
2019-05-07T15:57:20.000Z,285.09
2019-05-07T15:59:36.000Z,284.9
2019-05-07T16:01:03.000Z,284.96
2019-05-07T16:03:11.000Z,284.84
2019-05-07T16:04:42.000Z,284.84
2019-05-07T16:06:56.000Z,284.96
2019-05-07T16:08:22.000Z,284.9
2019-05-07T16:10:31.000Z,285.15
2019-05-07T16:12:00.000Z,285.15
2019-05-07T16:14:08.000Z,284.96
2019-05-07T16:15:43.000Z,285.09
2019-05-07T16:17:53.000Z,285.02
2019-05-07T16:19:22.000Z,285.02
2019-05-07T16:21:29.000Z,285.21
2019-05-07T16:22:59.000Z,285.02
2019-05-07T16:25:20.000Z,285.02
2019-05-07T16:26:44.000Z,284.96
2019-05-07T16:28:56.000Z,284.96
2019-05-07T16:30:26.000Z,285.09
2019-05-07T16:32:40.000Z,285.02
2019-05-07T16:34:07.000Z,285.09
2019-05-07T16:36:19.000Z,285.15
2019-05-07T16:37:48.000Z,285.21
2019-05-07T16:40:08.000Z,285.27
2019-05-07T16:41:38.000Z,284.96
2019-05-07T16:43:51.000Z,284.71
2019-05-07T16:45:20.000Z,284.84
2019-05-07T16:47:28.000Z,285.02
2019-05-07T16:49:00.000Z,285.09
2019-05-07T16:51:16.000Z,285.02
2019-05-07T16:52:45.000Z,284.9
2019-05-07T17:00:12.000Z,284.77
2019-05-07T17:01:34.000Z,284.96
2019-05-07T17:03:35.000Z,284.96
2019-05-07T17:04:57.000Z,284.96
2019-05-07T17:06:58.000Z,284.84
2019-05-07T17:08:22.000Z,284.84
2019-05-07T17:10:23.000Z,285.02
2019-05-07T17:11:45.000Z,284.84
2019-05-07T17:13:46.000Z,284.65
2019-05-07T17:15:08.000Z,284.84
2019-05-07T17:17:11.000Z,284.71
2019-05-07T17:18:33.000Z,284.65
2019-05-07T17:20:34.000Z,284.71
2019-05-07T17:21:56.000Z,284.71
2019-05-07T17:23:58.000Z,284.71
2019-05-07T17:25:22.000Z,284.65
2019-05-07T17:27:23.000Z,284.52
2019-05-07T17:28:45.000Z,284.46
2019-05-07T17:30:46.000Z,284.4
2019-05-07T17:32:08.000Z,284.34
2019-05-07T17:34:11.000Z,284.4
2019-05-07T17:35:33.000Z,284.4
2019-05-07T17:37:35.000Z,284.34
2019-05-07T17:38:57.000Z,284.34
2019-05-07T17:40:58.000Z,284.27
2019-05-07T17:42:36.000Z,284.21
2019-05-07T17:44:37.000Z,284.21
2019-05-07T17:45:59.000Z,284.21
2019-05-07T17:48:01.000Z,284.15
2019-05-07T17:49:23.000Z,284.09
2019-05-07T17:51:24.000Z,284.02
2019-05-07T17:52:46.000Z,283.9
2019-05-07T17:54:47.000Z,283.84
2019-05-07T17:56:09.000Z,283.77
2019-05-07T17:58:12.000Z,283.71
2019-05-07T17:59:35.000Z,283.77
2019-05-07T18:01:36.000Z,283.77
2019-05-07T18:02:58.000Z,283.71
2019-05-07T18:05:02.000Z,283.65
2019-05-07T18:06:24.000Z,283.52
2019-05-07T18:08:25.000Z,283.4
2019-05-07T18:09:47.000Z,283.34
2019-05-07T18:11:49.000Z,283.34
2019-05-07T18:13:12.000Z,283.27
2019-05-07T18:15:13.000Z,283.15
2019-05-07T18:16:37.000Z,283.21
2019-05-07T18:18:37.000Z,283.15
2019-05-07T18:20:00.000Z,283.21
2019-05-07T18:22:02.000Z,283.15
2019-05-07T18:23:25.000Z,283.02
2019-05-07T18:25:32.000Z,282.96
2019-05-07T18:26:56.000Z,282.9
2019-05-07T18:28:57.000Z,282.84
2019-05-07T18:30:20.000Z,282.84
2019-05-07T18:32:22.000Z,282.71
2019-05-07T18:33:45.000Z,282.65
2019-05-07T18:35:47.000Z,282.52
2019-05-07T18:37:09.000Z,282.46
2019-05-07T18:39:12.000Z,282.46
2019-05-07T18:40:37.000Z,282.4
2019-05-07T18:42:41.000Z,282.34
2019-05-07T18:44:03.000Z,282.21
2019-05-07T18:46:14.000Z,282.09
2019-05-07T18:47:40.000Z,282.09
2019-05-07T18:49:46.000Z,281.9
2019-05-07T18:51:09.000Z,281.84
2019-05-07T18:53:12.000Z,281.84
2019-05-07T18:54:37.000Z,281.71
2019-05-07T18:56:42.000Z,281.59
2019-05-07T18:58:06.000Z,281.46
2019-05-07T19:00:07.000Z,281.34
2019-05-07T19:01:31.000Z,281.34
2019-05-07T19:03:36.000Z,281.34
2019-05-07T19:05:00.000Z,281.27
2019-05-07T19:07:06.000Z,281.21
2019-05-07T19:08:29.000Z,281.15
2019-05-07T19:12:09.000Z,281.09
2019-05-07T19:13:01.000Z,281.02
2019-05-07T19:14:29.000Z,281.02
2019-05-07T19:16:35.000Z,281.02
2019-05-07T19:18:00.000Z,280.96
2019-05-07T19:20:01.000Z,280.9
2019-05-07T19:21:28.000Z,280.9
2019-05-07T19:23:34.000Z,280.77
2019-05-07T19:24:58.000Z,280.71
2019-05-07T19:27:10.000Z,280.65
2019-05-07T19:28:33.000Z,280.65
2019-05-07T19:30:36.000Z,280.59
2019-05-07T19:32:00.000Z,280.59
2019-05-07T19:34:07.000Z,280.52
2019-05-07T19:35:34.000Z,280.52
2019-05-07T19:37:42.000Z,280.46
2019-05-07T19:39:09.000Z,280.46
2019-05-07T19:41:16.000Z,280.46
2019-05-07T19:42:39.000Z,280.52
2019-05-07T19:44:44.000Z,280.52
2019-05-07T19:46:12.000Z,280.52
2019-05-07T19:48:15.000Z,280.4
2019-05-07T19:49:40.000Z,280.34
2019-05-07T19:51:47.000Z,280.21
2019-05-07T19:53:19.000Z,280.21
2019-05-07T19:55:25.000Z,280.15
2019-05-07T19:56:51.000Z,280.21
2019-05-07T19:58:56.000Z,280.21
2019-05-07T20:00:20.000Z,280.15
2019-05-07T20:02:25.000Z,280.02
2019-05-07T20:03:50.000Z,279.96
2019-05-07T20:06:00.000Z,279.96
2019-05-07T20:07:24.000Z,279.9
2019-05-07T20:09:29.000Z,279.9
2019-05-07T20:10:54.000Z,279.84
2019-05-07T20:12:59.000Z,279.84
2019-05-07T20:14:25.000Z,279.77
2019-05-07T20:16:31.000Z,279.71
2019-05-07T20:18:02.000Z,279.71
2019-05-07T20:20:09.000Z,279.65
2019-05-07T20:21:39.000Z,279.65
2019-05-07T20:23:43.000Z,279.59
2019-05-07T20:25:13.000Z,279.59
2019-05-07T20:27:26.000Z,279.52
2019-05-07T20:28:55.000Z,279.46
2019-05-07T20:30:58.000Z,279.4
2019-05-07T20:32:31.000Z,279.4
2019-05-07T20:34:37.000Z,279.34
2019-05-07T20:36:05.000Z,279.34
2019-05-07T20:38:15.000Z,279.27
2019-05-07T20:39:43.000Z,279.27
2019-05-07T20:41:54.000Z,279.15
2019-05-07T20:43:19.000Z,279.21
2019-05-07T20:45:31.000Z,279.09
2019-05-07T20:47:00.000Z,279.09
2019-05-07T20:49:07.000Z,279.09
2019-05-07T20:50:36.000Z,279.09
2019-05-07T20:52:45.000Z,278.9
2019-05-07T20:54:14.000Z,278.9
2019-05-07T20:56:28.000Z,278.84
2019-05-07T20:58:00.000Z,278.77
2019-05-07T21:00:10.000Z,278.77
2019-05-07T21:01:43.000Z,278.71
2019-05-07T21:05:24.000Z,278.77
2019-05-07T21:05:59.000Z,278.84
2019-05-07T21:07:30.000Z,278.71
2019-05-07T21:09:40.000Z,278.71
2019-05-07T21:11:11.000Z,278.65
2019-05-07T21:13:17.000Z,278.59
2019-05-07T21:15:01.000Z,278.4
2019-05-07T21:17:14.000Z,278.27
2019-05-07T21:18:38.000Z,278.21
2019-05-07T21:20:48.000Z,278.15
2019-05-07T21:22:22.000Z,278.15
2019-05-07T21:24:29.000Z,278.02
2019-05-07T21:25:58.000Z,278.09
2019-05-07T21:28:12.000Z,277.96
2019-05-07T21:29:42.000Z,277.9
2019-05-07T21:31:52.000Z,277.71
2019-05-07T21:33:20.000Z,277.65
2019-05-07T21:35:28.000Z,277.65
2019-05-07T21:36:59.000Z,277.52
2019-05-07T21:39:12.000Z,277.52
2019-05-07T21:40:41.000Z,277.46
2019-05-07T21:42:50.000Z,277.34
2019-05-07T21:44:20.000Z,277.4
2019-05-07T21:51:49.000Z,277.02
2019-05-07T21:53:14.000Z,277.02
2019-05-07T21:55:16.000Z,276.9
2019-05-07T21:56:38.000Z,276.84
2019-05-07T21:58:39.000Z,276.84
2019-05-07T22:00:01.000Z,276.84
2019-05-07T22:02:02.000Z,276.71
2019-05-07T22:03:24.000Z,276.65
2019-05-07T22:05:25.000Z,276.59
2019-05-07T22:06:47.000Z,276.59
2019-05-07T22:08:48.000Z,276.52
2019-05-07T22:10:15.000Z,276.46
2019-05-07T22:12:16.000Z,276.4
2019-05-07T22:13:38.000Z,276.34
2019-05-07T22:15:39.000Z,276.34
2019-05-07T22:17:02.000Z,276.34
2019-05-07T22:19:03.000Z,276.21
2019-05-07T22:20:25.000Z,276.21
2019-05-07T22:22:26.000Z,276.21
2019-05-07T22:23:49.000Z,276.15
2019-05-07T22:25:52.000Z,276.09
2019-05-07T22:27:14.000Z,276.09
2019-05-07T22:29:15.000Z,276.09
2019-05-07T22:30:37.000Z,276.02
2019-05-07T22:32:38.000Z,276.02
2019-05-07T22:34:04.000Z,275.9
2019-05-07T22:36:05.000Z,275.84
2019-05-07T22:37:27.000Z,275.84
2019-05-07T22:39:28.000Z,275.84
2019-05-07T22:40:52.000Z,275.77
2019-05-07T22:42:53.000Z,275.65
2019-05-07T22:44:15.000Z,275.65